sensor_id;sensor_type;location;lat;lon;timestamp;pressure;altitude;pressure_sealevel;temperature;humidity
15678;BME280;7939;50.814;6.368;2023-07-29T00:00:38;99111.16;;;23.53;63.02
15678;BME280;7939;50.814;6.368;2023-07-29T00:03:04;99102.59;;;23.51;63.15
15678;BME280;7939;50.814;6.368;2023-07-29T00:05:31;99104.34;;;23.51;63.13
15678;BME280;7939;50.814;6.368;2023-07-29T00:07:58;99103.50;;;23.50;63.09
15678;BME280;7939;50.814;6.368;2023-07-29T00:10:24;99099.25;;;23.49;63.05
15678;BME280;7939;50.814;6.368;2023-07-29T00:12:52;99101.84;;;23.49;62.89
15678;BME280;7939;50.814;6.368;2023-07-29T00:15:19;99105.41;;;23.48;62.87
15678;BME280;7939;50.814;6.368;2023-07-29T00:17:45;99104.66;;;23.46;62.86
15678;BME280;7939;50.814;6.368;2023-07-29T00:20:12;99102.06;;;23.46;62.93
15678;BME280;7939;50.814;6.368;2023-07-29T00:22:38;99100.28;;;23.47;62.97
15678;BME280;7939;50.814;6.368;2023-07-29T00:25:06;99098.63;;;23.46;63.35
15678;BME280;7939;50.814;6.368;2023-07-29T00:27:32;99101.28;;;23.44;63.26
15678;BME280;7939;50.814;6.368;2023-07-29T00:30:00;99101.28;;;23.44;63.22
15678;BME280;7939;50.814;6.368;2023-07-29T00:32:29;99100.47;;;23.43;63.26
15678;BME280;7939;50.814;6.368;2023-07-29T00:34:56;99097.03;;;23.43;63.41
15678;BME280;7939;50.814;6.368;2023-07-29T00:37:23;99097.97;;;23.42;63.24
15678;BME280;7939;50.814;6.368;2023-07-29T00:39:49;99098.06;;;23.40;63.23
15678;BME280;7939;50.814;6.368;2023-07-29T00:42:16;99102.34;;;23.41;63.53
15678;BME280;7939;50.814;6.368;2023-07-29T00:44:43;99108.50;;;23.40;63.80
15678;BME280;7939;50.814;6.368;2023-07-29T00:47:11;99097.22;;;23.40;63.75
15678;BME280;7939;50.814;6.368;2023-07-29T00:49:39;99095.56;;;23.39;63.98
15678;BME280;7939;50.814;6.368;2023-07-29T00:52:06;99106.00;;;23.39;64.00
15678;BME280;7939;50.814;6.368;2023-07-29T00:54:33;99100.03;;;23.37;64.23
15678;BME280;7939;50.814;6.368;2023-07-29T00:57:00;99100.84;;;23.37;64.03
15678;BME280;7939;50.814;6.368;2023-07-29T00:59:26;99102.63;;;23.37;64.04
15678;BME280;7939;50.814;6.368;2023-07-29T01:01:55;99107.13;;;23.35;64.29
15678;BME280;7939;50.814;6.368;2023-07-29T01:04:23;99102.72;;;23.35;64.61
15678;BME280;7939;50.814;6.368;2023-07-29T01:06:53;99088.84;;;23.35;64.41
15678;BME280;7939;50.814;6.368;2023-07-29T01:09:31;99094.19;;;23.33;64.80
15678;BME280;7939;50.814;6.368;2023-07-29T01:12:08;99089.81;;;23.34;64.66
15678;BME280;7939;50.814;6.368;2023-07-29T01:14:39;99084.69;;;23.32;65.01
15678;BME280;7939;50.814;6.368;2023-07-29T01:17:10;99083.75;;;23.33;64.99
15678;BME280;7939;50.814;6.368;2023-07-29T01:19:58;99077.69;;;23.33;65.07
15678;BME280;7939;50.814;6.368;2023-07-29T01:22:27;99076.94;;;23.31;65.14
15678;BME280;7939;50.814;6.368;2023-07-29T01:24:56;99084.75;;;23.31;65.50
15678;BME280;7939;50.814;6.368;2023-07-29T01:27:23;99076.09;;;23.30;65.20
15678;BME280;7939;50.814;6.368;2023-07-29T01:29:50;99073.50;;;23.30;65.68
15678;BME280;7939;50.814;6.368;2023-07-29T01:32:19;99083.94;;;23.30;65.39
15678;BME280;7939;50.814;6.368;2023-07-29T01:34:54;99073.50;;;23.30;65.24
15678;BME280;7939;50.814;6.368;2023-07-29T01:37:26;99074.44;;;23.29;65.56
15678;BME280;7939;50.814;6.368;2023-07-29T01:39:58;99077.03;;;23.29;65.69
15678;BME280;7939;50.814;6.368;2023-07-29T01:42:26;99076.22;;;23.29;65.26
15678;BME280;7939;50.814;6.368;2023-07-29T01:44:53;99080.50;;;23.30;65.57
15678;BME280;7939;50.814;6.368;2023-07-29T01:47:20;99080.59;;;23.28;65.66
15678;BME280;7939;50.814;6.368;2023-07-29T01:49:47;99095.41;;;23.28;65.64
15678;BME280;7939;50.814;6.368;2023-07-29T01:52:14;99098.94;;;23.27;65.76
15678;BME280;7939;50.814;6.368;2023-07-29T01:54:40;99090.28;;;23.26;65.37
15678;BME280;7939;50.814;6.368;2023-07-29T01:57:08;99095.50;;;23.26;65.29
15678;BME280;7939;50.814;6.368;2023-07-29T01:59:35;99079.94;;;23.25;65.39
15678;BME280;7939;50.814;6.368;2023-07-29T02:02:01;99077.31;;;23.25;65.13
15678;BME280;7939;50.814;6.368;2023-07-29T02:04:28;99069.50;;;23.25;65.43
15678;BME280;7939;50.814;6.368;2023-07-29T02:06:55;99082.66;;;23.23;65.23
15678;BME280;7939;50.814;6.368;2023-07-29T02:09:21;99081.81;;;23.23;65.32
15678;BME280;7939;50.814;6.368;2023-07-29T02:11:48;99076.69;;;23.21;65.29
15678;BME280;7939;50.814;6.368;2023-07-29T02:14:16;99077.63;;;23.20;65.13
15678;BME280;7939;50.814;6.368;2023-07-29T02:16:42;99082.09;;;23.18;65.02
15678;BME280;7939;50.814;6.368;2023-07-29T02:19:09;99088.25;;;23.17;65.09
15678;BME280;7939;50.814;6.368;2023-07-29T02:21:35;99081.38;;;23.16;65.01
15678;BME280;7939;50.814;6.368;2023-07-29T02:24:02;99080.53;;;23.15;65.10
15678;BME280;7939;50.814;6.368;2023-07-29T02:26:29;99071.88;;;23.15;65.07
15678;BME280;7939;50.814;6.368;2023-07-29T02:28:55;99080.63;;;23.14;65.27
15678;BME280;7939;50.814;6.368;2023-07-29T02:31:24;99083.31;;;23.12;64.83
15678;BME280;7939;50.814;6.368;2023-07-29T02:33:51;99085.00;;;23.13;65.02
15678;BME280;7939;50.814;6.368;2023-07-29T02:36:18;99083.41;;;23.11;65.14
15678;BME280;7939;50.814;6.368;2023-07-29T02:38:45;99080.81;;;23.11;64.90
15678;BME280;7939;50.814;6.368;2023-07-29T02:41:12;99073.00;;;23.11;65.09
15678;BME280;7939;50.814;6.368;2023-07-29T02:43:41;99073.94;;;23.10;64.86
15678;BME280;7939;50.814;6.368;2023-07-29T02:46:08;99080.09;;;23.09;65.13
15678;BME280;7939;50.814;6.368;2023-07-29T02:48:36;99074.13;;;23.07;65.03
15678;BME280;7939;50.814;6.368;2023-07-29T02:51:03;99077.56;;;23.07;65.26
15678;BME280;7939;50.814;6.368;2023-07-29T02:53:29;99080.25;;;23.06;65.07
15678;BME280;7939;50.814;6.368;2023-07-29T02:55:56;99067.22;;;23.06;65.21
15678;BME280;7939;50.814;6.368;2023-07-29T02:58:23;99065.44;;;23.06;65.00
15678;BME280;7939;50.814;6.368;2023-07-29T03:00:51;99058.56;;;23.05;65.21
15678;BME280;7939;50.814;6.368;2023-07-29T03:03:18;99053.34;;;23.05;65.00
15678;BME280;7939;50.814;6.368;2023-07-29T03:05:46;99052.53;;;23.05;65.31
15678;BME280;7939;50.814;6.368;2023-07-29T03:08:13;99058.69;;;23.04;64.98
15678;BME280;7939;50.814;6.368;2023-07-29T03:10:40;99059.63;;;23.03;65.13
15678;BME280;7939;50.814;6.368;2023-07-29T03:13:07;99063.16;;;23.02;65.22
15678;BME280;7939;50.814;6.368;2023-07-29T03:15:34;99070.03;;;23.03;65.20
15678;BME280;7939;50.814;6.368;2023-07-29T03:18:00;99061.50;;;23.01;65.09
15678;BME280;7939;50.814;6.368;2023-07-29T03:20:27;99058.00;;;23.00;65.13
15678;BME280;7939;50.814;6.368;2023-07-29T03:22:55;99054.56;;;23.00;65.23
15678;BME280;7939;50.814;6.368;2023-07-29T03:25:21;99053.75;;;22.99;65.11
15678;BME280;7939;50.814;6.368;2023-07-29T03:27:48;99056.44;;;22.98;64.94
15678;BME280;7939;50.814;6.368;2023-07-29T03:30:15;99047.69;;;22.99;65.22
15678;BME280;7939;50.814;6.368;2023-07-29T03:32:43;99054.78;;;22.97;65.30
15678;BME280;7939;50.814;6.368;2023-07-29T03:35:10;99057.50;;;22.95;65.07
15678;BME280;7939;50.814;6.368;2023-07-29T03:37:37;99058.31;;;22.96;64.83
15678;BME280;7939;50.814;6.368;2023-07-29T03:40:06;99064.53;;;22.93;65.11
15678;BME280;7939;50.814;6.368;2023-07-29T03:42:34;99062.78;;;22.94;65.08
15678;BME280;7939;50.814;6.368;2023-07-29T03:45:01;99076.75;;;22.93;65.03
15678;BME280;7939;50.814;6.368;2023-07-29T03:47:27;99075.91;;;22.92;65.29
15678;BME280;7939;50.814;6.368;2023-07-29T03:49:54;99077.69;;;22.92;64.94
15678;BME280;7939;50.814;6.368;2023-07-29T03:52:21;99082.06;;;22.91;65.08
15678;BME280;7939;50.814;6.368;2023-07-29T03:54:47;99076.00;;;22.91;65.05
15678;BME280;7939;50.814;6.368;2023-07-29T03:57:15;99070.81;;;22.91;65.00
15678;BME280;7939;50.814;6.368;2023-07-29T03:59:42;99076.94;;;22.90;64.99
15678;BME280;7939;50.814;6.368;2023-07-29T04:02:09;99073.50;;;22.89;64.86
15678;BME280;7939;50.814;6.368;2023-07-29T04:07:02;99083.16;;;22.87;64.55
15678;BME280;7939;50.814;6.368;2023-07-29T04:09:29;99085.78;;;22.87;64.79
15678;BME280;7939;50.814;6.368;2023-07-29T04:11:55;99083.25;;;22.85;65.01
15678;BME280;7939;50.814;6.368;2023-07-29T04:14:23;99085.00;;;22.85;65.02
15678;BME280;7939;50.814;6.368;2023-07-29T04:16:50;99085.94;;;22.84;64.82
15678;BME280;7939;50.814;6.368;2023-07-29T04:19:17;99103.44;;;22.82;64.59
15678;BME280;7939;50.814;6.368;2023-07-29T04:21:43;99099.13;;;22.81;64.77
15678;BME280;7939;50.814;6.368;2023-07-29T04:24:10;99099.97;;;22.81;64.93
15678;BME280;7939;50.814;6.368;2023-07-29T04:26:36;99088.81;;;22.79;64.84
15678;BME280;7939;50.814;6.368;2023-07-29T04:29:04;99085.38;;;22.79;65.01
15678;BME280;7939;50.814;6.368;2023-07-29T04:31:32;99095.81;;;22.79;64.60
15678;BME280;7939;50.814;6.368;2023-07-29T04:33:58;99083.72;;;22.78;64.84
15678;BME280;7939;50.814;6.368;2023-07-29T04:36:25;99083.81;;;22.76;64.85
15678;BME280;7939;50.814;6.368;2023-07-29T04:38:51;99079.44;;;22.77;64.83
15678;BME280;7939;50.814;6.368;2023-07-29T04:41:18;99071.63;;;22.77;64.92
15678;BME280;7939;50.814;6.368;2023-07-29T04:43:44;99079.50;;;22.75;64.71
15678;BME280;7939;50.814;6.368;2023-07-29T04:46:12;99083.16;;;22.73;64.97
15678;BME280;7939;50.814;6.368;2023-07-29T04:48:40;99089.19;;;22.73;64.91
15678;BME280;7939;50.814;6.368;2023-07-29T04:51:06;99098.78;;;22.73;64.83
15678;BME280;7939;50.814;6.368;2023-07-29T04:53:33;99082.22;;;22.74;65.23
15678;BME280;7939;50.814;6.368;2023-07-29T04:56:00;99081.47;;;22.72;64.90
15678;BME280;7939;50.814;6.368;2023-07-29T04:58:27;99095.44;;;22.71;65.00
15678;BME280;7939;50.814;6.368;2023-07-29T05:00:55;99096.38;;;22.70;65.15
15678;BME280;7939;50.814;6.368;2023-07-29T05:03:21;99096.38;;;22.70;64.74
15678;BME280;7939;50.814;6.368;2023-07-29T05:05:49;99094.69;;;22.69;64.95
15678;BME280;7939;50.814;6.368;2023-07-29T05:08:16;99097.28;;;22.69;64.89
15678;BME280;7939;50.814;6.368;2023-07-29T05:10:43;99099.06;;;22.68;64.98
15678;BME280;7939;50.814;6.368;2023-07-29T05:13:10;99096.44;;;22.68;64.95
15678;BME280;7939;50.814;6.368;2023-07-29T05:15:36;99104.25;;;22.68;65.35
15678;BME280;7939;50.814;6.368;2023-07-29T05:18:03;99108.63;;;22.68;65.01
15678;BME280;7939;50.814;6.368;2023-07-29T05:20:29;99107.81;;;22.67;64.95
15678;BME280;7939;50.814;6.368;2023-07-29T05:22:57;99103.53;;;22.66;64.84
15678;BME280;7939;50.814;6.368;2023-07-29T05:25:25;99107.91;;;22.66;65.05
15678;BME280;7939;50.814;6.368;2023-07-29T05:27:52;99111.44;;;22.65;65.28
15678;BME280;7939;50.814;6.368;2023-07-29T05:30:18;99115.81;;;22.64;64.89
15678;BME280;7939;50.814;6.368;2023-07-29T05:32:45;99114.16;;;22.63;64.98
15678;BME280;7939;50.814;6.368;2023-07-29T05:35:12;99114.97;;;22.64;65.21
15678;BME280;7939;50.814;6.368;2023-07-29T05:37:40;99119.25;;;22.65;65.28
15678;BME280;7939;50.814;6.368;2023-07-29T05:40:09;99133.28;;;22.62;64.94
15678;BME280;7939;50.814;6.368;2023-07-29T05:42:35;99126.31;;;22.62;65.29
15678;BME280;7939;50.814;6.368;2023-07-29T05:45:02;99131.63;;;22.61;65.33
15678;BME280;7939;50.814;6.368;2023-07-29T05:47:29;99138.50;;;22.62;65.19
15678;BME280;7939;50.814;6.368;2023-07-29T05:49:56;99139.44;;;22.61;65.16
15678;BME280;7939;50.814;6.368;2023-07-29T05:52:22;99145.47;;;22.61;65.19
15678;BME280;7939;50.814;6.368;2023-07-29T05:54:49;99154.22;;;22.60;65.18
15678;BME280;7939;50.814;6.368;2023-07-29T05:57:17;99149.09;;;22.59;65.15
15678;BME280;7939;50.814;6.368;2023-07-29T05:59:43;99156.09;;;22.58;64.89
15678;BME280;7939;50.814;6.368;2023-07-29T06:02:10;99156.91;;;22.59;65.45
15678;BME280;7939;50.814;6.368;2023-07-29T06:04:36;99165.56;;;22.59;65.35
15678;BME280;7939;50.814;6.368;2023-07-29T06:07:04;99160.47;;;22.58;65.43
15678;BME280;7939;50.814;6.368;2023-07-29T06:09:30;99164.84;;;22.57;65.23
15678;BME280;7939;50.814;6.368;2023-07-29T06:11:57;99165.66;;;22.58;65.54
15678;BME280;7939;50.814;6.368;2023-07-29T06:14:25;99164.84;;;22.57;65.37
15678;BME280;7939;50.814;6.368;2023-07-29T06:16:52;99170.03;;;22.57;65.23
15678;BME280;7939;50.814;6.368;2023-07-29T06:19:19;99178.69;;;22.58;65.26
15678;BME280;7939;50.814;6.368;2023-07-29T06:21:46;99170.88;;;22.58;65.39
15678;BME280;7939;50.814;6.368;2023-07-29T06:24:13;99171.72;;;22.58;65.28
15678;BME280;7939;50.814;6.368;2023-07-29T06:26:40;99180.34;;;22.59;65.28
15678;BME280;7939;50.814;6.368;2023-07-29T06:29:06;99182.88;;;22.60;65.50
15678;BME280;7939;50.814;6.368;2023-07-29T06:31:35;99171.63;;;22.60;65.81
15678;BME280;7939;50.814;6.368;2023-07-29T06:34:01;99182.78;;;22.62;65.42
15678;BME280;7939;50.814;6.368;2023-07-29T06:36:28;99172.44;;;22.60;65.67
15678;BME280;7939;50.814;6.368;2023-07-29T06:38:55;99163.81;;;22.60;65.40
15678;BME280;7939;50.814;6.368;2023-07-29T06:41:21;99167.97;;;22.62;65.77
15678;BME280;7939;50.814;6.368;2023-07-29T06:43:48;99161.19;;;22.60;65.50
15678;BME280;7939;50.814;6.368;2023-07-29T06:46:14;99154.13;;;22.62;65.50
15678;BME280;7939;50.814;6.368;2023-07-29T06:48:42;99145.47;;;22.61;65.99
15678;BME280;7939;50.814;6.368;2023-07-29T06:51:09;99157.56;;;22.62;65.15
15678;BME280;7939;50.814;6.368;2023-07-29T06:53:36;99161.09;;;22.61;65.47
15678;BME280;7939;50.814;6.368;2023-07-29T06:56:03;99163.69;;;22.61;65.39
15678;BME280;7939;50.814;6.368;2023-07-29T06:58:30;99174.88;;;22.64;65.47
15678;BME280;7939;50.814;6.368;2023-07-29T07:00:56;99178.31;;;22.64;65.51
15678;BME280;7939;50.814;6.368;2023-07-29T07:03:23;99168.75;;;22.65;65.77
15678;BME280;7939;50.814;6.368;2023-07-29T07:05:51;99179.06;;;22.66;65.59
15678;BME280;7939;50.814;6.368;2023-07-29T07:08:18;99175.63;;;22.66;65.42
15678;BME280;7939;50.814;6.368;2023-07-29T07:10:46;99185.94;;;22.67;65.36
15678;BME280;7939;50.814;6.368;2023-07-29T07:13:13;99200.75;;;22.67;65.43
15678;BME280;7939;50.814;6.368;2023-07-29T07:15:39;99193.75;;;22.67;65.15
15678;BME280;7939;50.814;6.368;2023-07-29T07:18:06;99193.75;;;22.67;65.56
15678;BME280;7939;50.814;6.368;2023-07-29T07:20:34;99189.38;;;22.68;65.39
15678;BME280;7939;50.814;6.368;2023-07-29T07:23:02;99186.78;;;22.68;65.39
15678;BME280;7939;50.814;6.368;2023-07-29T07:25:30;99190.22;;;22.68;65.16
15678;BME280;7939;50.814;6.368;2023-07-29T07:27:57;99177.19;;;22.68;65.22
15678;BME280;7939;50.814;6.368;2023-07-29T07:30:23;99191.81;;;22.71;65.14
15678;BME280;7939;50.814;6.368;2023-07-29T07:32:50;99184.00;;;22.71;64.95
15678;BME280;7939;50.814;6.368;2023-07-29T07:35:16;99184.84;;;22.71;64.68
15678;BME280;7939;50.814;6.368;2023-07-29T07:37:44;99180.47;;;22.72;64.94
15678;BME280;7939;50.814;6.368;2023-07-29T07:40:12;99184.75;;;22.73;64.49
15678;BME280;7939;50.814;6.368;2023-07-29T07:42:38;99188.19;;;22.73;64.49
15678;BME280;7939;50.814;6.368;2023-07-29T07:45:05;99181.09;;;22.75;64.74
15678;BME280;7939;50.814;6.368;2023-07-29T07:47:32;99190.63;;;22.76;64.41
15678;BME280;7939;50.814;6.368;2023-07-29T07:49:59;99204.38;;;22.78;64.23
15678;BME280;7939;50.814;6.368;2023-07-29T07:52:26;99207.00;;;22.78;64.06
15678;BME280;7939;50.814;6.368;2023-07-29T07:54:53;99201.69;;;22.80;63.84
15678;BME280;7939;50.814;6.368;2023-07-29T07:57:21;99192.09;;;22.80;63.84
15678;BME280;7939;50.814;6.368;2023-07-29T07:59:48;99194.63;;;22.82;63.77
15678;BME280;7939;50.814;6.368;2023-07-29T08:02:16;99194.69;;;22.80;63.51
15678;BME280;7939;50.814;6.368;2023-07-29T08:04:42;99193.69;;;22.83;63.31
15678;BME280;7939;50.814;6.368;2023-07-29T08:07:09;99200.47;;;22.85;63.26
15678;BME280;7939;50.814;6.368;2023-07-29T08:09:35;99196.03;;;22.87;63.48
15678;BME280;7939;50.814;6.368;2023-07-29T08:12:02;99190.75;;;22.89;63.44
15678;BME280;7939;50.814;6.368;2023-07-29T08:14:31;99187.13;;;22.92;63.25
15678;BME280;7939;50.814;6.368;2023-07-29T08:16:58;99187.84;;;22.94;62.59
15678;BME280;7939;50.814;6.368;2023-07-29T08:19:25;99193.91;;;22.94;62.55
15678;BME280;7939;50.814;6.368;2023-07-29T08:21:53;99193.72;;;22.97;62.57
15678;BME280;7939;50.814;6.368;2023-07-29T08:24:19;99194.56;;;22.98;62.43
15678;BME280;7939;50.814;6.368;2023-07-29T08:26:46;99199.78;;;22.98;62.46
15678;BME280;7939;50.814;6.368;2023-07-29T08:29:12;99191.03;;;22.99;62.54
15678;BME280;7939;50.814;6.368;2023-07-29T08:31:40;99203.97;;;23.00;62.49
15678;BME280;7939;50.814;6.368;2023-07-29T08:34:07;99205.72;;;23.00;62.22
15678;BME280;7939;50.814;6.368;2023-07-29T08:36:33;99200.50;;;23.00;62.29
15678;BME280;7939;50.814;6.368;2023-07-29T08:39:00;99204.81;;;23.01;62.19
15678;BME280;7939;50.814;6.368;2023-07-29T08:41:31;99202.22;;;23.01;62.14
15678;BME280;7939;50.814;6.368;2023-07-29T08:44:12;99200.34;;;23.03;62.25
15678;BME280;7939;50.814;6.368;2023-07-29T08:46:40;99208.16;;;23.03;62.28
15678;BME280;7939;50.814;6.368;2023-07-29T08:49:07;99199.41;;;23.04;62.44
15678;BME280;7939;50.814;6.368;2023-07-29T08:51:34;99219.31;;;23.05;62.04
15678;BME280;7939;50.814;6.368;2023-07-29T08:54:01;99208.91;;;23.05;61.73
15678;BME280;7939;50.814;6.368;2023-07-29T08:56:28;99215.06;;;23.04;61.56
15678;BME280;7939;50.814;6.368;2023-07-29T08:58:55;99211.50;;;23.05;61.31
15678;BME280;7939;50.814;6.368;2023-07-29T09:01:23;99205.38;;;23.06;61.85
15678;BME280;7939;50.814;6.368;2023-07-29T09:03:51;99208.72;;;23.08;61.70
15678;BME280;7939;50.814;6.368;2023-07-29T09:06:18;99200.81;;;23.09;61.75
15678;BME280;7939;50.814;6.368;2023-07-29T09:08:47;99200.72;;;23.11;61.89
15678;BME280;7939;50.814;6.368;2023-07-29T09:11:15;99206.75;;;23.11;60.85
15678;BME280;7939;50.814;6.368;2023-07-29T09:13:42;99205.75;;;23.14;61.33
15678;BME280;7939;50.814;6.368;2023-07-29T09:16:09;99207.31;;;23.17;60.52
15678;BME280;7939;50.814;6.368;2023-07-29T09:18:36;99213.09;;;23.22;60.86
15678;BME280;7939;50.814;6.368;2023-07-29T09:21:04;99218.22;;;23.23;60.73
15678;BME280;7939;50.814;6.368;2023-07-29T09:23:38;99215.44;;;23.26;61.16
15678;BME280;7939;50.814;6.368;2023-07-29T09:26:06;99221.38;;;23.28;61.03
15678;BME280;7939;50.814;6.368;2023-07-29T09:28:34;99225.50;;;23.32;60.50
15678;BME280;7939;50.814;6.368;2023-07-29T09:31:02;99223.78;;;23.31;59.83
15678;BME280;7939;50.814;6.368;2023-07-29T09:33:29;99226.41;;;23.31;59.53
15678;BME280;7939;50.814;6.368;2023-07-29T09:35:56;99222.00;;;23.32;60.06
15678;BME280;7939;50.814;6.368;2023-07-29T09:38:28;99227.22;;;23.32;60.17
15678;BME280;7939;50.814;6.368;2023-07-29T09:40:56;99237.66;;;23.32;60.06
15678;BME280;7939;50.814;6.368;2023-07-29T09:43:25;99238.59;;;23.31;59.91
15678;BME280;7939;50.814;6.368;2023-07-29T09:45:52;99238.59;;;23.31;60.84
15678;BME280;7939;50.814;6.368;2023-07-29T09:48:22;99238.59;;;23.31;60.78
15678;BME280;7939;50.814;6.368;2023-07-29T09:50:49;99239.63;;;23.28;61.08
15678;BME280;7939;50.814;6.368;2023-07-29T09:53:16;99244.00;;;23.28;61.50
15678;BME280;7939;50.814;6.368;2023-07-29T09:55:47;99244.13;;;23.26;61.49
15678;BME280;7939;50.814;6.368;2023-07-29T09:58:19;99241.56;;;23.25;61.77
15678;BME280;7939;50.814;6.368;2023-07-29T10:00:46;99240.69;;;23.26;62.30
15678;BME280;7939;50.814;6.368;2023-07-29T10:03:13;99243.34;;;23.24;62.31
15678;BME280;7939;50.814;6.368;2023-07-29T10:05:41;99248.56;;;23.24;62.37
15678;BME280;7939;50.814;6.368;2023-07-29T10:08:09;99248.56;;;23.24;62.54
15678;BME280;7939;50.814;6.368;2023-07-29T10:10:37;99262.53;;;23.23;62.24
15678;BME280;7939;50.814;6.368;2023-07-29T10:13:06;99264.31;;;23.23;62.91
15678;BME280;7939;50.814;6.368;2023-07-29T10:15:33;99247.84;;;23.22;62.60
15678;BME280;7939;50.814;6.368;2023-07-29T10:18:01;99239.91;;;23.24;62.39
15678;BME280;7939;50.814;6.368;2023-07-29T10:20:28;99247.00;;;23.22;62.65
15678;BME280;7939;50.814;6.368;2023-07-29T10:22:59;99242.63;;;23.22;62.90
15678;BME280;7939;50.814;6.368;2023-07-29T10:25:34;99237.41;;;23.22;62.75
15678;BME280;7939;50.814;6.368;2023-07-29T10:28:06;99231.25;;;23.23;62.64
15678;BME280;7939;50.814;6.368;2023-07-29T10:30:33;99229.47;;;23.24;62.43
15678;BME280;7939;50.814;6.368;2023-07-29T10:33:02;99235.53;;;23.24;62.49
15678;BME280;7939;50.814;6.368;2023-07-29T10:35:29;99226.69;;;23.27;62.59
15678;BME280;7939;50.814;6.368;2023-07-29T10:37:56;99226.41;;;23.31;62.88
15678;BME280;7939;50.814;6.368;2023-07-29T10:40:23;99234.16;;;23.33;62.31
15678;BME280;7939;50.814;6.368;2023-07-29T10:43:00;99235.72;;;23.35;61.99
15678;BME280;7939;50.814;6.368;2023-07-29T10:45:36;99228.63;;;23.37;61.91
15678;BME280;7939;50.814;6.368;2023-07-29T10:48:06;99226.78;;;23.39;61.99
15678;BME280;7939;50.814;6.368;2023-07-29T10:50:33;99224.91;;;23.41;62.09
15678;BME280;7939;50.814;6.368;2023-07-29T10:53:00;99221.38;;;23.42;62.02
15678;BME280;7939;50.814;6.368;2023-07-29T10:55:29;99218.66;;;23.44;61.85
15678;BME280;7939;50.814;6.368;2023-07-29T10:58:14;99215.78;;;23.49;61.82
15678;BME280;7939;50.814;6.368;2023-07-29T11:00:44;99225.25;;;23.50;61.69
15678;BME280;7939;50.814;6.368;2023-07-29T11:03:12;99225.00;;;23.54;61.57
15678;BME280;7939;50.814;6.368;2023-07-29T11:05:45;99210.91;;;23.57;61.79
15678;BME280;7939;50.814;6.368;2023-07-29T11:08:17;99210.66;;;23.61;61.86
15678;BME280;7939;50.814;6.368;2023-07-29T11:10:57;99214.88;;;23.64;61.43
15678;BME280;7939;50.814;6.368;2023-07-29T11:13:26;99199.09;;;23.65;61.12
15678;BME280;7939;50.814;6.368;2023-07-29T11:15:55;99205.72;;;23.71;60.93
15678;BME280;7939;50.814;6.368;2023-07-29T11:18:26;99201.03;;;23.76;60.89
15678;BME280;7939;50.814;6.368;2023-07-29T11:20:54;99206.06;;;23.79;60.88
15678;BME280;7939;50.814;6.368;2023-07-29T11:23:27;99205.88;;;23.82;60.59
15678;BME280;7939;50.814;6.368;2023-07-29T11:25:54;99207.22;;;23.88;60.77
15678;BME280;7939;50.814;6.368;2023-07-29T11:28:21;99211.31;;;23.92;60.44
15678;BME280;7939;50.814;6.368;2023-07-29T11:30:49;99204.88;;;23.98;60.47
15678;BME280;7939;50.814;6.368;2023-07-29T11:33:19;99201.22;;;24.00;60.30
15678;BME280;7939;50.814;6.368;2023-07-29T11:35:46;99205.22;;;24.06;59.96
15678;BME280;7939;50.814;6.368;2023-07-29T11:38:15;99203.38;;;24.08;59.89
15678;BME280;7939;50.814;6.368;2023-07-29T11:40:41;99205.88;;;24.09;60.18
15678;BME280;7939;50.814;6.368;2023-07-29T11:43:08;99196.03;;;24.13;59.97
15678;BME280;7939;50.814;6.368;2023-07-29T11:45:35;99195.03;;;24.15;59.65
15678;BME280;7939;50.814;6.368;2023-07-29T11:48:02;99193.13;;;24.17;59.57
15678;BME280;7939;50.814;6.368;2023-07-29T11:50:29;99192.19;;;24.18;59.91
15678;BME280;7939;50.814;6.368;2023-07-29T11:52:56;99190.41;;;24.19;60.00
15678;BME280;7939;50.814;6.368;2023-07-29T11:55:24;99185.13;;;24.20;59.84
15678;BME280;7939;50.814;6.368;2023-07-29T11:57:51;99178.97;;;24.21;59.38
15678;BME280;7939;50.814;6.368;2023-07-29T12:00:18;99189.28;;;24.23;59.10
15678;BME280;7939;50.814;6.368;2023-07-29T12:02:45;99175.19;;;24.26;58.93
15678;BME280;7939;50.814;6.368;2023-07-29T12:05:13;99176.03;;;24.26;58.60
15678;BME280;7939;50.814;6.368;2023-07-29T12:07:43;99175.72;;;24.31;59.00
15678;BME280;7939;50.814;6.368;2023-07-29T12:10:11;99171.25;;;24.33;58.70
15678;BME280;7939;50.814;6.368;2023-07-29T12:12:43;99170.25;;;24.35;58.29
15678;BME280;7939;50.814;6.368;2023-07-29T12:15:10;99158.00;;;24.36;57.95
15678;BME280;7939;50.814;6.368;2023-07-29T12:17:39;99155.28;;;24.37;58.60
15678;BME280;7939;50.814;6.368;2023-07-29T12:20:08;99158.66;;;24.39;58.56
15678;BME280;7939;50.814;6.368;2023-07-29T12:22:35;99162.00;;;24.41;58.53
15678;BME280;7939;50.814;6.368;2023-07-29T12:25:04;99162.00;;;24.41;58.25
15678;BME280;7939;50.814;6.368;2023-07-29T12:27:31;99161.06;;;24.42;58.81
15678;BME280;7939;50.814;6.368;2023-07-29T12:30:01;99172.44;;;24.41;58.81
15678;BME280;7939;50.814;6.368;2023-07-29T12:32:29;99165.44;;;24.42;58.98
15678;BME280;7939;50.814;6.368;2023-07-29T12:34:55;99154.16;;;24.41;58.63
15678;BME280;7939;50.814;6.368;2023-07-29T12:37:31;99165.56;;;24.40;59.19
15678;BME280;7939;50.814;6.368;2023-07-29T12:40:05;99163.78;;;24.41;58.86
15678;BME280;7939;50.814;6.368;2023-07-29T12:42:31;99162.94;;;24.40;59.05
15678;BME280;7939;50.814;6.368;2023-07-29T12:44:58;99175.16;;;24.40;58.70
15678;BME280;7939;50.814;6.368;2023-07-29T12:47:24;99175.16;;;24.40;58.63
15678;BME280;7939;50.814;6.368;2023-07-29T12:49:51;99174.34;;;24.39;59.23
15678;BME280;7939;50.814;6.368;2023-07-29T12:52:18;99178.78;;;24.37;59.09
15678;BME280;7939;50.814;6.368;2023-07-29T12:54:44;99184.13;;;24.36;59.55
15678;BME280;7939;50.814;6.368;2023-07-29T12:57:12;99191.97;;;24.36;59.63
15678;BME280;7939;50.814;6.368;2023-07-29T12:59:39;99204.31;;;24.34;60.05
15678;BME280;7939;50.814;6.368;2023-07-29T13:02:06;99212.19;;;24.32;60.03
15678;BME280;7939;50.814;6.368;2023-07-29T13:04:32;99220.22;;;24.29;60.31
15678;BME280;7939;50.814;6.368;2023-07-29T13:06:59;99223.13;;;24.25;60.50
15678;BME280;7939;50.814;6.368;2023-07-29T13:09:26;99226.69;;;24.23;60.55
15678;BME280;7939;50.814;6.368;2023-07-29T13:11:53;99216.47;;;24.20;60.92
15678;BME280;7939;50.814;6.368;2023-07-29T13:14:21;99217.47;;;24.18;60.83